ADDS TAF Board (Experimental) INFO

IDs: Format: Expanded Condensed

Updated at: 1156 UTC 21 Nov 2014

KTPA - Tampa Intl Arpt, FL, US

Issued at 1124 UTC 21 Nov 2014
Time1053Z21/12Z21/13Z21/14Z21/15Z21/16Z21/17Z21/18Z21/19Z21/20Z21/21Z21/22Z21/23Z22/00Z
TypeOBSPRVLPRVLPRVLPRVLPRVLPRVLPRVLPRVLPRVLPRVLPRVLPRVLPRVL
VIS10>6>6>6>6>6>6>6>6>6>6>6>6>6
CIG110--------------------------
CoverBKNSCTSCTSCTSCTSCTSCTSCTSCTSCTSCTSCTSCTSCT
FltCat--VFRVFRVFRVFRVFRVFRVFRVFRVFRVFRVFRVFRVFR
WX----------------------------
WDir4040404040404040404040404040
WSpd68888888888888
WGst----------------------------
R01/19
XWnd-4-5-5-5-5-5-5-5-5-5-5-5-5-5
HWnd56666666666666
R10/28
XWnd56666666666666
HWnd45555555555555
Raw TAF
KTPA 211124Z 2112/2212 04008KT P6SM SCT100
  FM220100 06007KT P6SM SCT030 BKN100


Raw METAR
KTPA 211053Z 04006KT 10SM BKN110 13/M01 A3023 RMK AO2 SLP237 T01281011

TAF Board Legend

Hazard VFR MVFR IFR LIFR
Visibility (sm) >5 3≤X≤5 1≤X<3 <1
Ceiling (100 ft) >30 10≤X≤30 5≤X<10 <5
Wind Speed (kt) <10 10≤X<20 20≤X<30 ≥30
Wind Gust (kt) <15 15≤X<25 25≤X<35 ≥35
Weather No Wx Reported VCTS,-TS,-FZRA TS,FZRA +TS,+FZRA


Page loaded:  11:56 UTC  |   03:56 AM Pacific  |   04:56 AM Mountain  |   05:56 AM Central  |   06:56 AM Eastern

 

ADVISORIES

FORECASTS

FORECASTS

OBSERVATIONS

USER TOOLS

ABOUT US